sensor_id;sensor_type;location;lat;lon;timestamp;P1;durP1;ratioP1;P2;durP2;ratioP2
25653;SDS011;13511;48.622;9.230;2023-07-13T00:00:17;4.07;;;3.67;;
25653;SDS011;13511;48.622;9.230;2023-07-13T00:02:43;4.50;;;4.10;;
25653;SDS011;13511;48.622;9.230;2023-07-13T00:05:09;4.22;;;3.83;;
25653;SDS011;13511;48.622;9.230;2023-07-13T00:07:35;3.85;;;3.45;;
25653;SDS011;13511;48.622;9.230;2023-07-13T00:10:02;5.05;;;3.83;;
25653;SDS011;13511;48.622;9.230;2023-07-13T00:12:29;4.22;;;4.00;;
25653;SDS011;13511;48.622;9.230;2023-07-13T00:15:00;4.18;;;3.65;;
25653;SDS011;13511;48.622;9.230;2023-07-13T00:17:27;3.78;;;3.67;;
25653;SDS011;13511;48.622;9.230;2023-07-13T00:19:53;3.72;;;3.53;;
25653;SDS011;13511;48.622;9.230;2023-07-13T00:22:20;4.28;;;3.70;;
25653;SDS011;13511;48.622;9.230;2023-07-13T00:24:47;4.10;;;3.80;;
25653;SDS011;13511;48.622;9.230;2023-07-13T00:27:13;3.92;;;3.70;;
25653;SDS011;13511;48.622;9.230;2023-07-13T00:29:39;4.13;;;3.85;;
25653;SDS011;13511;48.622;9.230;2023-07-13T00:32:06;3.88;;;3.65;;
25653;SDS011;13511;48.622;9.230;2023-07-13T00:34:32;4.50;;;3.78;;
25653;SDS011;13511;48.622;9.230;2023-07-13T00:36:58;4.65;;;4.10;;
25653;SDS011;13511;48.622;9.230;2023-07-13T00:39:25;3.80;;;3.60;;
25653;SDS011;13511;48.622;9.230;2023-07-13T00:41:51;4.18;;;3.97;;
25653;SDS011;13511;48.622;9.230;2023-07-13T00:44:18;4.65;;;4.03;;
25653;SDS011;13511;48.622;9.230;2023-07-13T00:46:44;4.15;;;3.90;;
25653;SDS011;13511;48.622;9.230;2023-07-13T00:49:10;4.32;;;4.00;;
25653;SDS011;13511;48.622;9.230;2023-07-13T00:51:39;4.55;;;3.90;;
25653;SDS011;13511;48.622;9.230;2023-07-13T00:54:07;4.55;;;3.70;;
25653;SDS011;13511;48.622;9.230;2023-07-13T00:56:35;4.05;;;3.75;;
25653;SDS011;13511;48.622;9.230;2023-07-13T00:59:03;3.90;;;3.60;;
25653;SDS011;13511;48.622;9.230;2023-07-13T01:01:30;4.20;;;4.00;;
25653;SDS011;13511;48.622;9.230;2023-07-13T01:03:56;4.40;;;4.03;;
25653;SDS011;13511;48.622;9.230;2023-07-13T01:06:22;3.90;;;3.53;;
25653;SDS011;13511;48.622;9.230;2023-07-13T01:08:48;8.02;;;3.67;;
25653;SDS011;13511;48.622;9.230;2023-07-13T01:11:18;5.47;;;4.10;;
25653;SDS011;13511;48.622;9.230;2023-07-13T01:13:44;4.53;;;4.00;;
25653;SDS011;13511;48.622;9.230;2023-07-13T01:16:15;4.18;;;3.90;;
25653;SDS011;13511;48.622;9.230;2023-07-13T01:18:43;4.25;;;3.92;;
25653;SDS011;13511;48.622;9.230;2023-07-13T01:21:09;4.20;;;3.83;;
25653;SDS011;13511;48.622;9.230;2023-07-13T01:23:35;4.15;;;3.95;;
25653;SDS011;13511;48.622;9.230;2023-07-13T01:26:01;3.65;;;3.35;;
25653;SDS011;13511;48.622;9.230;2023-07-13T01:28:28;3.72;;;3.42;;
25653;SDS011;13511;48.622;9.230;2023-07-13T01:30:55;4.03;;;3.83;;
25653;SDS011;13511;48.622;9.230;2023-07-13T01:33:21;4.28;;;3.75;;
25653;SDS011;13511;48.622;9.230;2023-07-13T01:35:47;4.13;;;3.92;;
25653;SDS011;13511;48.622;9.230;2023-07-13T01:38:14;6.18;;;3.75;;
25653;SDS011;13511;48.622;9.230;2023-07-13T01:40:40;4.07;;;3.88;;
25653;SDS011;13511;48.622;9.230;2023-07-13T01:43:06;3.85;;;3.65;;
25653;SDS011;13511;48.622;9.230;2023-07-13T01:45:33;3.85;;;3.55;;
25653;SDS011;13511;48.622;9.230;2023-07-13T01:47:59;4.45;;;4.05;;
25653;SDS011;13511;48.622;9.230;2023-07-13T01:50:25;7.45;;;4.03;;
25653;SDS011;13511;48.622;9.230;2023-07-13T01:52:51;4.40;;;3.85;;
25653;SDS011;13511;48.622;9.230;2023-07-13T01:55:18;4.47;;;3.72;;
25653;SDS011;13511;48.622;9.230;2023-07-13T01:57:44;3.95;;;3.60;;
25653;SDS011;13511;48.622;9.230;2023-07-13T02:00:10;3.75;;;3.55;;
25653;SDS011;13511;48.622;9.230;2023-07-13T02:02:37;3.92;;;3.72;;
25653;SDS011;13511;48.622;9.230;2023-07-13T02:05:03;6.13;;;4.20;;
25653;SDS011;13511;48.622;9.230;2023-07-13T02:07:29;4.30;;;3.90;;
25653;SDS011;13511;48.622;9.230;2023-07-13T02:09:55;4.90;;;4.03;;
25653;SDS011;13511;48.622;9.230;2023-07-13T02:12:21;4.15;;;3.95;;
25653;SDS011;13511;48.622;9.230;2023-07-13T02:14:47;4.30;;;4.10;;
25653;SDS011;13511;48.622;9.230;2023-07-13T02:17:13;4.57;;;4.20;;
25653;SDS011;13511;48.622;9.230;2023-07-13T02:19:39;3.70;;;3.40;;
25653;SDS011;13511;48.622;9.230;2023-07-13T02:22:05;4.00;;;3.80;;
25653;SDS011;13511;48.622;9.230;2023-07-13T02:24:31;7.55;;;3.95;;
25653;SDS011;13511;48.622;9.230;2023-07-13T02:26:57;4.07;;;3.80;;
25653;SDS011;13511;48.622;9.230;2023-07-13T02:29:23;4.30;;;3.97;;
25653;SDS011;13511;48.622;9.230;2023-07-13T02:31:49;3.90;;;3.55;;
25653;SDS011;13511;48.622;9.230;2023-07-13T02:34:15;3.60;;;3.50;;
25653;SDS011;13511;48.622;9.230;2023-07-13T02:36:41;4.40;;;4.10;;
25653;SDS011;13511;48.622;9.230;2023-07-13T02:39:07;6.03;;;3.90;;
25653;SDS011;13511;48.622;9.230;2023-07-13T02:41:34;7.18;;;3.78;;
25653;SDS011;13511;48.622;9.230;2023-07-13T02:44:00;3.88;;;3.58;;
25653;SDS011;13511;48.622;9.230;2023-07-13T02:46:37;3.65;;;3.50;;
25653;SDS011;13511;48.622;9.230;2023-07-13T02:49:03;3.42;;;3.33;;
25653;SDS011;13511;48.622;9.230;2023-07-13T02:51:30;4.72;;;3.70;;
25653;SDS011;13511;48.622;9.230;2023-07-13T02:53:58;3.90;;;3.60;;
25653;SDS011;13511;48.622;9.230;2023-07-13T02:56:25;3.95;;;3.65;;
25653;SDS011;13511;48.622;9.230;2023-07-13T02:58:51;6.22;;;4.00;;
25653;SDS011;13511;48.622;9.230;2023-07-13T03:01:18;4.95;;;4.28;;
25653;SDS011;13511;48.622;9.230;2023-07-13T03:03:46;3.95;;;3.63;;
25653;SDS011;13511;48.622;9.230;2023-07-13T03:06:13;3.60;;;3.40;;
25653;SDS011;13511;48.622;9.230;2023-07-13T03:08:39;7.40;;;3.75;;
25653;SDS011;13511;48.622;9.230;2023-07-13T03:11:15;5.78;;;3.63;;
25653;SDS011;13511;48.622;9.230;2023-07-13T03:13:41;4.45;;;3.47;;
25653;SDS011;13511;48.622;9.230;2023-07-13T03:16:08;4.63;;;3.58;;
25653;SDS011;13511;48.622;9.230;2023-07-13T03:18:35;5.47;;;3.33;;
25653;SDS011;13511;48.622;9.230;2023-07-13T03:21:01;3.72;;;3.33;;
25653;SDS011;13511;48.622;9.230;2023-07-13T03:23:27;4.85;;;3.40;;
25653;SDS011;13511;48.622;9.230;2023-07-13T03:26:03;3.95;;;3.55;;
25653;SDS011;13511;48.622;9.230;2023-07-13T03:28:30;3.92;;;3.63;;
25653;SDS011;13511;48.622;9.230;2023-07-13T03:31:07;4.30;;;3.95;;
25653;SDS011;13511;48.622;9.230;2023-07-13T03:33:33;3.67;;;3.47;;
25653;SDS011;13511;48.622;9.230;2023-07-13T03:35:59;3.85;;;3.60;;
25653;SDS011;13511;48.622;9.230;2023-07-13T03:38:25;4.07;;;3.80;;
25653;SDS011;13511;48.622;9.230;2023-07-13T03:40:52;5.35;;;3.50;;
25653;SDS011;13511;48.622;9.230;2023-07-13T03:43:18;7.32;;;3.70;;
25653;SDS011;13511;48.622;9.230;2023-07-13T03:45:45;6.45;;;3.45;;
25653;SDS011;13511;48.622;9.230;2023-07-13T03:48:11;4.32;;;3.90;;
25653;SDS011;13511;48.622;9.230;2023-07-13T03:50:37;5.55;;;3.70;;
25653;SDS011;13511;48.622;9.230;2023-07-13T03:53:03;4.97;;;3.60;;
25653;SDS011;13511;48.622;9.230;2023-07-13T03:55:29;3.53;;;3.33;;
25653;SDS011;13511;48.622;9.230;2023-07-13T03:58:22;4.18;;;3.80;;
25653;SDS011;13511;48.622;9.230;2023-07-13T04:00:44;3.70;;;3.40;;
25653;SDS011;13511;48.622;9.230;2023-07-13T04:03:10;3.78;;;3.47;;
25653;SDS011;13511;48.622;9.230;2023-07-13T04:05:36;4.47;;;4.00;;
25653;SDS011;13511;48.622;9.230;2023-07-13T04:08:02;3.85;;;3.60;;
25653;SDS011;13511;48.622;9.230;2023-07-13T04:10:28;5.35;;;3.85;;
25653;SDS011;13511;48.622;9.230;2023-07-13T04:12:54;4.22;;;3.88;;
25653;SDS011;13511;48.622;9.230;2023-07-13T04:15:20;3.85;;;3.60;;
25653;SDS011;13511;48.622;9.230;2023-07-13T04:17:46;4.43;;;3.50;;
25653;SDS011;13511;48.622;9.230;2023-07-13T04:20:12;4.05;;;3.63;;
25653;SDS011;13511;48.622;9.230;2023-07-13T04:22:38;3.88;;;3.58;;
25653;SDS011;13511;48.622;9.230;2023-07-13T04:25:04;4.20;;;3.85;;
25653;SDS011;13511;48.622;9.230;2023-07-13T04:27:30;5.43;;;4.20;;
25653;SDS011;13511;48.622;9.230;2023-07-13T04:29:57;4.60;;;4.00;;
25653;SDS011;13511;48.622;9.230;2023-07-13T04:32:23;7.07;;;3.70;;
25653;SDS011;13511;48.622;9.230;2023-07-13T04:34:49;4.00;;;3.70;;
25653;SDS011;13511;48.622;9.230;2023-07-13T04:37:18;4.45;;;4.07;;
25653;SDS011;13511;48.622;9.230;2023-07-13T04:39:44;4.82;;;3.83;;
25653;SDS011;13511;48.622;9.230;2023-07-13T04:42:10;4.00;;;3.70;;
25653;SDS011;13511;48.622;9.230;2023-07-13T04:44:36;6.47;;;3.75;;
25653;SDS011;13511;48.622;9.230;2023-07-13T04:47:02;4.43;;;4.03;;
25653;SDS011;13511;48.622;9.230;2023-07-13T04:49:28;5.35;;;4.53;;
25653;SDS011;13511;48.622;9.230;2023-07-13T04:51:54;4.50;;;4.13;;
25653;SDS011;13511;48.622;9.230;2023-07-13T04:54:20;4.22;;;3.88;;
25653;SDS011;13511;48.622;9.230;2023-07-13T04:56:47;4.68;;;3.85;;
25653;SDS011;13511;48.622;9.230;2023-07-13T04:59:13;4.03;;;3.70;;
25653;SDS011;13511;48.622;9.230;2023-07-13T05:01:39;4.38;;;3.90;;
25653;SDS011;13511;48.622;9.230;2023-07-13T05:04:05;7.38;;;3.90;;
25653;SDS011;13511;48.622;9.230;2023-07-13T05:06:31;5.57;;;4.30;;
25653;SDS011;13511;48.622;9.230;2023-07-13T05:08:58;4.97;;;4.35;;
25653;SDS011;13511;48.622;9.230;2023-07-13T05:11:24;4.00;;;3.80;;
25653;SDS011;13511;48.622;9.230;2023-07-13T05:13:50;6.57;;;4.10;;
25653;SDS011;13511;48.622;9.230;2023-07-13T05:16:16;4.40;;;4.10;;
25653;SDS011;13511;48.622;9.230;2023-07-13T05:18:42;4.63;;;4.28;;
25653;SDS011;13511;48.622;9.230;2023-07-13T05:21:08;4.03;;;3.67;;
25653;SDS011;13511;48.622;9.230;2023-07-13T05:23:35;3.92;;;3.63;;
25653;SDS011;13511;48.622;9.230;2023-07-13T05:26:02;4.68;;;3.97;;
25653;SDS011;13511;48.622;9.230;2023-07-13T05:28:28;5.25;;;4.10;;
25653;SDS011;13511;48.622;9.230;2023-07-13T05:30:54;3.80;;;3.55;;
25653;SDS011;13511;48.622;9.230;2023-07-13T05:33:20;3.90;;;3.60;;
25653;SDS011;13511;48.622;9.230;2023-07-13T05:35:46;4.40;;;3.50;;
25653;SDS011;13511;48.622;9.230;2023-07-13T05:38:12;5.28;;;3.70;;
25653;SDS011;13511;48.622;9.230;2023-07-13T05:40:38;4.25;;;3.85;;
25653;SDS011;13511;48.622;9.230;2023-07-13T05:43:04;4.70;;;3.95;;
25653;SDS011;13511;48.622;9.230;2023-07-13T05:45:30;3.28;;;3.13;;
25653;SDS011;13511;48.622;9.230;2023-07-13T05:47:56;7.32;;;4.00;;
25653;SDS011;13511;48.622;9.230;2023-07-13T05:50:22;4.45;;;3.88;;
25653;SDS011;13511;48.622;9.230;2023-07-13T05:52:48;3.40;;;3.10;;
25653;SDS011;13511;48.622;9.230;2023-07-13T05:55:15;3.97;;;3.50;;
25653;SDS011;13511;48.622;9.230;2023-07-13T05:57:41;4.50;;;3.50;;
25653;SDS011;13511;48.622;9.230;2023-07-13T06:00:08;5.00;;;4.18;;
25653;SDS011;13511;48.622;9.230;2023-07-13T06:02:34;4.10;;;3.60;;
25653;SDS011;13511;48.622;9.230;2023-07-13T06:05:00;4.40;;;3.35;;
25653;SDS011;13511;48.622;9.230;2023-07-13T06:07:26;3.50;;;3.30;;
25653;SDS011;13511;48.622;9.230;2023-07-13T06:09:52;4.47;;;3.40;;
25653;SDS011;13511;48.622;9.230;2023-07-13T06:12:18;4.57;;;3.30;;
25653;SDS011;13511;48.622;9.230;2023-07-13T06:14:44;3.63;;;3.33;;
25653;SDS011;13511;48.622;9.230;2023-07-13T06:17:10;3.78;;;3.55;;
25653;SDS011;13511;48.622;9.230;2023-07-13T06:19:36;3.50;;;3.20;;
25653;SDS011;13511;48.622;9.230;2023-07-13T06:22:02;4.18;;;3.50;;
25653;SDS011;13511;48.622;9.230;2023-07-13T06:24:28;3.50;;;3.15;;
25653;SDS011;13511;48.622;9.230;2023-07-13T06:26:54;3.70;;;3.30;;
25653;SDS011;13511;48.622;9.230;2023-07-13T06:29:20;3.70;;;3.42;;
25653;SDS011;13511;48.622;9.230;2023-07-13T06:31:46;5.82;;;3.70;;
25653;SDS011;13511;48.622;9.230;2023-07-13T06:34:12;4.25;;;3.10;;
25653;SDS011;13511;48.622;9.230;2023-07-13T06:36:38;3.97;;;3.65;;
25653;SDS011;13511;48.622;9.230;2023-07-13T06:39:04;3.60;;;3.40;;
25653;SDS011;13511;48.622;9.230;2023-07-13T06:41:31;4.35;;;3.63;;
25653;SDS011;13511;48.622;9.230;2023-07-13T06:43:58;4.13;;;3.38;;
25653;SDS011;13511;48.622;9.230;2023-07-13T06:46:24;7.07;;;3.42;;
25653;SDS011;13511;48.622;9.230;2023-07-13T06:48:50;3.72;;;3.40;;
25653;SDS011;13511;48.622;9.230;2023-07-13T06:51:16;5.13;;;3.25;;
25653;SDS011;13511;48.622;9.230;2023-07-13T06:53:42;3.72;;;3.42;;
25653;SDS011;13511;48.622;9.230;2023-07-13T06:56:09;3.85;;;3.20;;
25653;SDS011;13511;48.622;9.230;2023-07-13T06:58:36;3.97;;;3.40;;
25653;SDS011;13511;48.622;9.230;2023-07-13T07:01:02;6.05;;;3.10;;
25653;SDS011;13511;48.622;9.230;2023-07-13T07:03:28;3.45;;;3.25;;
25653;SDS011;13511;48.622;9.230;2023-07-13T07:05:59;4.40;;;3.22;;
25653;SDS011;13511;48.622;9.230;2023-07-13T07:10:51;5.22;;;3.03;;
25653;SDS011;13511;48.622;9.230;2023-07-13T07:13:19;3.30;;;2.97;;
25653;SDS011;13511;48.622;9.230;2023-07-13T07:15:45;4.93;;;3.13;;
25653;SDS011;13511;48.622;9.230;2023-07-13T07:18:11;3.50;;;3.22;;
25653;SDS011;13511;48.622;9.230;2023-07-13T07:20:37;3.05;;;2.80;;
25653;SDS011;13511;48.622;9.230;2023-07-13T07:23:03;3.03;;;2.75;;
25653;SDS011;13511;48.622;9.230;2023-07-13T07:25:29;4.53;;;2.83;;
25653;SDS011;13511;48.622;9.230;2023-07-13T07:27:57;4.35;;;2.88;;
25653;SDS011;13511;48.622;9.230;2023-07-13T07:30:24;3.65;;;3.13;;
25653;SDS011;13511;48.622;9.230;2023-07-13T07:32:50;3.55;;;2.90;;
25653;SDS011;13511;48.622;9.230;2023-07-13T07:35:16;3.58;;;3.13;;
25653;SDS011;13511;48.622;9.230;2023-07-13T07:37:42;3.10;;;2.90;;
25653;SDS011;13511;48.622;9.230;2023-07-13T07:40:08;5.05;;;3.03;;
25653;SDS011;13511;48.622;9.230;2023-07-13T07:42:34;2.90;;;2.78;;
25653;SDS011;13511;48.622;9.230;2023-07-13T07:45:00;3.83;;;2.90;;
25653;SDS011;13511;48.622;9.230;2023-07-13T07:47:26;3.22;;;3.00;;
25653;SDS011;13511;48.622;9.230;2023-07-13T07:49:52;6.97;;;2.80;;
25653;SDS011;13511;48.622;9.230;2023-07-13T07:52:18;3.05;;;2.85;;
25653;SDS011;13511;48.622;9.230;2023-07-13T07:54:44;3.13;;;2.80;;
25653;SDS011;13511;48.622;9.230;2023-07-13T07:57:10;3.72;;;3.03;;
25653;SDS011;13511;48.622;9.230;2023-07-13T07:59:37;3.28;;;2.97;;
25653;SDS011;13511;48.622;9.230;2023-07-13T08:02:03;13.85;;;2.92;;
25653;SDS011;13511;48.622;9.230;2023-07-13T08:04:29;3.45;;;2.78;;
25653;SDS011;13511;48.622;9.230;2023-07-13T08:06:55;5.97;;;3.38;;
25653;SDS011;13511;48.622;9.230;2023-07-13T08:09:22;4.28;;;3.03;;
25653;SDS011;13511;48.622;9.230;2023-07-13T08:11:48;2.90;;;2.70;;
25653;SDS011;13511;48.622;9.230;2023-07-13T08:14:14;4.43;;;2.80;;
25653;SDS011;13511;48.622;9.230;2023-07-13T08:16:40;4.40;;;3.13;;
25653;SDS011;13511;48.622;9.230;2023-07-13T08:19:06;3.83;;;2.75;;
25653;SDS011;13511;48.622;9.230;2023-07-13T08:21:32;2.88;;;2.78;;
25653;SDS011;13511;48.622;9.230;2023-07-13T08:23:58;4.93;;;3.42;;
25653;SDS011;13511;48.622;9.230;2023-07-13T08:26:24;2.80;;;2.60;;
25653;SDS011;13511;48.622;9.230;2023-07-13T08:28:50;2.78;;;2.53;;
25653;SDS011;13511;48.622;9.230;2023-07-13T08:31:16;4.72;;;2.70;;
25653;SDS011;13511;48.622;9.230;2023-07-13T08:33:42;3.55;;;2.50;;
25653;SDS011;13511;48.622;9.230;2023-07-13T08:36:09;3.35;;;2.95;;
25653;SDS011;13511;48.622;9.230;2023-07-13T08:38:34;3.47;;;3.10;;
25653;SDS011;13511;48.622;9.230;2023-07-13T08:41:02;3.03;;;2.70;;
25653;SDS011;13511;48.622;9.230;2023-07-13T08:43:35;2.95;;;2.75;;
25653;SDS011;13511;48.622;9.230;2023-07-13T08:48:47;6.00;;;2.85;;
25653;SDS011;13511;48.622;9.230;2023-07-13T08:51:30;4.88;;;2.80;;
25653;SDS011;13511;48.622;9.230;2023-07-13T08:53:59;5.20;;;3.05;;
25653;SDS011;13511;48.622;9.230;2023-07-13T08:56:27;3.88;;;2.60;;
25653;SDS011;13511;48.622;9.230;2023-07-13T08:59:13;6.38;;;2.92;;
25653;SDS011;13511;48.622;9.230;2023-07-13T09:04:28;3.80;;;2.85;;
25653;SDS011;13511;48.622;9.230;2023-07-13T09:12:23;4.15;;;2.50;;
25653;SDS011;13511;48.622;9.230;2023-07-13T09:14:46;7.38;;;3.13;;
25653;SDS011;13511;48.622;9.230;2023-07-13T09:17:29;4.30;;;2.97;;
25653;SDS011;13511;48.622;9.230;2023-07-13T09:19:59;3.10;;;2.90;;
25653;SDS011;13511;48.622;9.230;2023-07-13T09:22:27;3.03;;;2.83;;
25653;SDS011;13511;48.622;9.230;2023-07-13T09:25:01;3.08;;;2.88;;
25653;SDS011;13511;48.622;9.230;2023-07-13T09:27:46;5.68;;;2.80;;
25653;SDS011;13511;48.622;9.230;2023-07-13T09:32:39;3.20;;;2.55;;
25653;SDS011;13511;48.622;9.230;2023-07-13T09:35:11;2.78;;;2.58;;
25653;SDS011;13511;48.622;9.230;2023-07-13T09:37:38;2.53;;;2.40;;
25653;SDS011;13511;48.622;9.230;2023-07-13T09:40:10;3.17;;;2.50;;
25653;SDS011;13511;48.622;9.230;2023-07-13T09:42:38;3.97;;;2.60;;
25653;SDS011;13511;48.622;9.230;2023-07-13T09:45:04;3.33;;;3.03;;
25653;SDS011;13511;48.622;9.230;2023-07-13T09:47:38;3.08;;;2.50;;
25653;SDS011;13511;48.622;9.230;2023-07-13T09:50:06;4.15;;;2.67;;
25653;SDS011;13511;48.622;9.230;2023-07-13T09:52:46;2.60;;;2.40;;
25653;SDS011;13511;48.622;9.230;2023-07-13T09:55:22;2.57;;;2.37;;
25653;SDS011;13511;48.622;9.230;2023-07-13T09:57:49;6.55;;;2.60;;
25653;SDS011;13511;48.622;9.230;2023-07-13T10:00:26;3.90;;;2.67;;
25653;SDS011;13511;48.622;9.230;2023-07-13T10:05:39;5.97;;;3.58;;
25653;SDS011;13511;48.622;9.230;2023-07-13T10:08:05;4.30;;;2.78;;
25653;SDS011;13511;48.622;9.230;2023-07-13T10:10:32;3.95;;;3.15;;
25653;SDS011;13511;48.622;9.230;2023-07-13T10:13:00;3.13;;;2.83;;
25653;SDS011;13511;48.622;9.230;2023-07-13T10:15:29;4.05;;;2.65;;
25653;SDS011;13511;48.622;9.230;2023-07-13T10:17:55;3.90;;;2.38;;
25653;SDS011;13511;48.622;9.230;2023-07-13T10:20:23;2.70;;;2.50;;
25653;SDS011;13511;48.622;9.230;2023-07-13T10:23:04;3.78;;;2.50;;
25653;SDS011;13511;48.622;9.230;2023-07-13T10:25:34;3.40;;;2.70;;
25653;SDS011;13511;48.622;9.230;2023-07-13T10:28:06;2.97;;;2.38;;
25653;SDS011;13511;48.622;9.230;2023-07-13T10:30:38;3.05;;;2.65;;
25653;SDS011;13511;48.622;9.230;2023-07-13T10:33:12;4.80;;;2.85;;
25653;SDS011;13511;48.622;9.230;2023-07-13T10:35:39;2.90;;;2.70;;
25653;SDS011;13511;48.622;9.230;2023-07-13T10:38:14;6.95;;;2.72;;
25653;SDS011;13511;48.622;9.230;2023-07-13T10:40:57;3.60;;;2.83;;
25653;SDS011;13511;48.622;9.230;2023-07-13T10:43:28;2.72;;;2.53;;
25653;SDS011;13511;48.622;9.230;2023-07-13T10:45:55;2.80;;;2.60;;
25653;SDS011;13511;48.622;9.230;2023-07-13T10:48:22;6.90;;;2.58;;
25653;SDS011;13511;48.622;9.230;2023-07-13T10:50:49;4.38;;;2.80;;
25653;SDS011;13511;48.622;9.230;2023-07-13T10:53:34;5.25;;;2.45;;
25653;SDS011;13511;48.622;9.230;2023-07-13T10:56:05;3.55;;;2.70;;
25653;SDS011;13511;48.622;9.230;2023-07-13T10:58:42;2.97;;;2.65;;
25653;SDS011;13511;48.622;9.230;2023-07-13T11:01:10;3.33;;;2.88;;
25653;SDS011;13511;48.622;9.230;2023-07-13T11:03:38;4.20;;;2.80;;
25653;SDS011;13511;48.622;9.230;2023-07-13T11:09:00;4.82;;;3.17;;
25653;SDS011;13511;48.622;9.230;2023-07-13T11:18:52;6.25;;;3.25;;
25653;SDS011;13511;48.622;9.230;2023-07-13T11:21:22;3.40;;;3.28;;
25653;SDS011;13511;48.622;9.230;2023-07-13T11:23:52;3.10;;;2.90;;
25653;SDS011;13511;48.622;9.230;2023-07-13T11:31:52;3.38;;;3.15;;
25653;SDS011;13511;48.622;9.230;2023-07-13T11:34:26;3.20;;;3.00;;
25653;SDS011;13511;48.622;9.230;2023-07-13T11:36:53;3.20;;;3.00;;
25653;SDS011;13511;48.622;9.230;2023-07-13T11:41:49;4.40;;;3.65;;
25653;SDS011;13511;48.622;9.230;2023-07-13T11:44:17;3.13;;;2.90;;
25653;SDS011;13511;48.622;9.230;2023-07-13T11:46:48;3.25;;;2.97;;
25653;SDS011;13511;48.622;9.230;2023-07-13T11:49:16;4.97;;;2.80;;
25653;SDS011;13511;48.622;9.230;2023-07-13T11:51:43;2.92;;;2.78;;
25653;SDS011;13511;48.622;9.230;2023-07-13T11:54:16;4.07;;;3.00;;
25653;SDS011;13511;48.622;9.230;2023-07-13T11:56:45;3.28;;;2.97;;
25653;SDS011;13511;48.622;9.230;2023-07-13T11:59:11;5.18;;;2.72;;
25653;SDS011;13511;48.622;9.230;2023-07-13T12:01:42;5.47;;;2.60;;
25653;SDS011;13511;48.622;9.230;2023-07-13T12:04:26;5.05;;;3.40;;
25653;SDS011;13511;48.622;9.230;2023-07-13T12:06:56;4.10;;;2.67;;
25653;SDS011;13511;48.622;9.230;2023-07-13T12:09:25;3.67;;;2.85;;
25653;SDS011;13511;48.622;9.230;2023-07-13T12:11:52;5.82;;;2.63;;
25653;SDS011;13511;48.622;9.230;2023-07-13T12:14:18;3.85;;;2.30;;
25653;SDS011;13511;48.622;9.230;2023-07-13T12:16:46;4.10;;;3.05;;
25653;SDS011;13511;48.622;9.230;2023-07-13T12:19:33;4.45;;;2.70;;
25653;SDS011;13511;48.622;9.230;2023-07-13T12:21:58;3.15;;;2.85;;
25653;SDS011;13511;48.622;9.230;2023-07-13T12:24:25;2.95;;;2.78;;
25653;SDS011;13511;48.622;9.230;2023-07-13T12:26:52;7.28;;;2.92;;
25653;SDS011;13511;48.622;9.230;2023-07-13T12:29:18;3.42;;;2.88;;
25653;SDS011;13511;48.622;9.230;2023-07-13T12:31:45;3.70;;;3.05;;
25653;SDS011;13511;48.622;9.230;2023-07-13T12:34:16;4.00;;;2.80;;
25653;SDS011;13511;48.622;9.230;2023-07-13T12:41:54;3.03;;;2.72;;
25653;SDS011;13511;48.622;9.230;2023-07-13T12:44:34;3.08;;;2.85;;
25653;SDS011;13511;48.622;9.230;2023-07-13T12:47:08;2.80;;;2.55;;
25653;SDS011;13511;48.622;9.230;2023-07-13T12:52:04;3.35;;;3.13;;
25653;SDS011;13511;48.622;9.230;2023-07-13T12:54:31;3.08;;;2.70;;
25653;SDS011;13511;48.622;9.230;2023-07-13T12:56:58;2.83;;;2.60;;
25653;SDS011;13511;48.622;9.230;2023-07-13T12:59:27;5.57;;;2.50;;
25653;SDS011;13511;48.622;9.230;2023-07-13T13:01:55;3.97;;;2.90;;
25653;SDS011;13511;48.622;9.230;2023-07-13T13:04:21;2.78;;;2.58;;
25653;SDS011;13511;48.622;9.230;2023-07-13T13:06:48;4.82;;;2.83;;
25653;SDS011;13511;48.622;9.230;2023-07-13T13:09:15;2.92;;;2.60;;
25653;SDS011;13511;48.622;9.230;2023-07-13T13:11:41;3.97;;;2.67;;
25653;SDS011;13511;48.622;9.230;2023-07-13T13:14:08;4.50;;;2.58;;
25653;SDS011;13511;48.622;9.230;2023-07-13T13:16:44;3.17;;;2.70;;
25653;SDS011;13511;48.622;9.230;2023-07-13T13:19:13;2.58;;;2.47;;
25653;SDS011;13511;48.622;9.230;2023-07-13T13:21:40;5.68;;;2.83;;
25653;SDS011;13511;48.622;9.230;2023-07-13T13:24:16;3.95;;;3.15;;
25653;SDS011;13511;48.622;9.230;2023-07-13T13:26:43;4.05;;;2.63;;
25653;SDS011;13511;48.622;9.230;2023-07-13T13:29:11;6.18;;;3.17;;
25653;SDS011;13511;48.622;9.230;2023-07-13T13:31:38;3.00;;;2.53;;
25653;SDS011;13511;48.622;9.230;2023-07-13T13:34:07;3.05;;;2.85;;
25653;SDS011;13511;48.622;9.230;2023-07-13T13:36:34;3.15;;;2.95;;
25653;SDS011;13511;48.622;9.230;2023-07-13T13:39:00;3.75;;;2.92;;
25653;SDS011;13511;48.622;9.230;2023-07-13T13:41:27;5.50;;;3.10;;
25653;SDS011;13511;48.622;9.230;2023-07-13T13:43:53;4.88;;;2.90;;
25653;SDS011;13511;48.622;9.230;2023-07-13T13:46:20;7.13;;;2.90;;
25653;SDS011;13511;48.622;9.230;2023-07-13T13:48:47;3.42;;;2.83;;
25653;SDS011;13511;48.622;9.230;2023-07-13T13:51:20;3.70;;;2.70;;
25653;SDS011;13511;48.622;9.230;2023-07-13T13:53:47;5.43;;;2.67;;
25653;SDS011;13511;48.622;9.230;2023-07-13T13:56:13;2.83;;;2.70;;
25653;SDS011;13511;48.622;9.230;2023-07-13T13:58:40;3.63;;;2.70;;
25653;SDS011;13511;48.622;9.230;2023-07-13T14:01:21;3.60;;;3.00;;
25653;SDS011;13511;48.622;9.230;2023-07-13T14:03:49;2.75;;;2.65;;
25653;SDS011;13511;48.622;9.230;2023-07-13T14:06:16;3.90;;;2.95;;
25653;SDS011;13511;48.622;9.230;2023-07-13T14:08:43;5.10;;;2.97;;
25653;SDS011;13511;48.622;9.230;2023-07-13T14:11:12;2.92;;;2.72;;
25653;SDS011;13511;48.622;9.230;2023-07-13T14:13:41;3.92;;;2.60;;
25653;SDS011;13511;48.622;9.230;2023-07-13T14:16:11;6.25;;;2.80;;
25653;SDS011;13511;48.622;9.230;2023-07-13T14:18:38;5.30;;;2.78;;
25653;SDS011;13511;48.622;9.230;2023-07-13T14:21:08;4.80;;;2.67;;
25653;SDS011;13511;48.622;9.230;2023-07-13T14:23:36;6.40;;;2.78;;
25653;SDS011;13511;48.622;9.230;2023-07-13T14:26:04;6.90;;;2.85;;
25653;SDS011;13511;48.622;9.230;2023-07-13T14:28:30;4.90;;;3.20;;
25653;SDS011;13511;48.622;9.230;2023-07-13T14:30:56;3.97;;;3.13;;
25653;SDS011;13511;48.622;9.230;2023-07-13T14:33:22;2.53;;;2.42;;
25653;SDS011;13511;48.622;9.230;2023-07-13T14:35:50;3.30;;;3.00;;
25653;SDS011;13511;48.622;9.230;2023-07-13T14:38:18;3.40;;;3.20;;
25653;SDS011;13511;48.622;9.230;2023-07-13T14:40:44;3.38;;;3.08;;
25653;SDS011;13511;48.622;9.230;2023-07-13T14:43:11;4.10;;;3.10;;
25653;SDS011;13511;48.622;9.230;2023-07-13T14:45:39;3.65;;;3.20;;
25653;SDS011;13511;48.622;9.230;2023-07-13T14:50:41;4.30;;;3.10;;
25653;SDS011;13511;48.622;9.230;2023-07-13T14:53:11;7.22;;;3.03;;
25653;SDS011;13511;48.622;9.230;2023-07-13T14:55:37;3.17;;;2.83;;
25653;SDS011;13511;48.622;9.230;2023-07-13T14:58:03;3.75;;;3.45;;
25653;SDS011;13511;48.622;9.230;2023-07-13T15:00:29;3.65;;;2.72;;
25653;SDS011;13511;48.622;9.230;2023-07-13T15:02:56;3.83;;;2.70;;
25653;SDS011;13511;48.622;9.230;2023-07-13T15:05:23;3.38;;;2.80;;
25653;SDS011;13511;48.622;9.230;2023-07-13T15:07:50;3.40;;;3.00;;
25653;SDS011;13511;48.622;9.230;2023-07-13T15:10:19;4.13;;;3.38;;
25653;SDS011;13511;48.622;9.230;2023-07-13T15:12:46;4.00;;;2.83;;
25653;SDS011;13511;48.622;9.230;2023-07-13T15:15:12;5.80;;;2.97;;
25653;SDS011;13511;48.622;9.230;2023-07-13T15:17:42;3.85;;;3.55;;
25653;SDS011;13511;48.622;9.230;2023-07-13T15:20:16;6.10;;;3.20;;
25653;SDS011;13511;48.622;9.230;2023-07-13T15:22:43;3.17;;;2.92;;
25653;SDS011;13511;48.622;9.230;2023-07-13T15:25:15;3.42;;;2.72;;
25653;SDS011;13511;48.622;9.230;2023-07-13T15:27:41;3.40;;;3.10;;
25653;SDS011;13511;48.622;9.230;2023-07-13T15:30:07;3.60;;;2.88;;
25653;SDS011;13511;48.622;9.230;2023-07-13T15:32:34;4.25;;;2.50;;
25653;SDS011;13511;48.622;9.230;2023-07-13T15:35:00;6.13;;;2.85;;
25653;SDS011;13511;48.622;9.230;2023-07-13T15:37:26;3.50;;;2.78;;